createdAt,value
2018-03-16T00:01:18.746Z,3.30
2018-03-16T00:03:51.250Z,3.30
2018-03-16T00:06:23.205Z,3.40
2018-03-16T00:08:54.423Z,3.40
2018-03-16T00:11:25.846Z,3.40
2018-03-16T00:13:57.110Z,3.30
2018-03-16T00:16:28.345Z,3.20
2018-03-16T00:19:00.336Z,3.20
2018-03-16T00:21:32.356Z,3.30
2018-03-16T00:24:04.777Z,3.20
2018-03-16T00:26:36.940Z,3.10
2018-03-16T00:29:09.054Z,3.30
2018-03-16T00:31:40.351Z,3.30
2018-03-16T00:34:12.692Z,3.20
2018-03-16T00:36:43.932Z,3.20
2018-03-16T00:39:15.246Z,3.30
2018-03-16T00:41:47.412Z,3.30
2018-03-16T00:44:18.916Z,3.20
2018-03-16T00:46:50.166Z,3.10
2018-03-16T00:49:21.396Z,3.10
2018-03-16T00:51:52.794Z,3.10
2018-03-16T00:54:25.893Z,3.00
2018-03-16T00:56:57.110Z,3.00
2018-03-16T00:59:29.271Z,3.00
2018-03-16T01:02:01.502Z,3.00
2018-03-16T01:04:32.716Z,2.90
2018-03-16T01:07:04.843Z,3.10
2018-03-16T01:09:36.137Z,3.10
2018-03-16T01:12:07.314Z,2.90
2018-03-16T01:14:38.703Z,3.00
2018-03-16T01:17:10.001Z,2.90
2018-03-16T01:19:41.318Z,2.80
2018-03-16T01:22:12.540Z,2.80
2018-03-16T01:24:44.531Z,2.90
2018-03-16T01:27:15.802Z,2.90
2018-03-16T01:29:47.908Z,3.00
2018-03-16T01:32:19.131Z,2.90
2018-03-16T01:34:50.459Z,2.80
2018-03-16T01:37:21.649Z,2.90
2018-03-16T01:39:54.400Z,3.00
2018-03-16T01:42:25.599Z,3.00
2018-03-16T01:44:56.969Z,3.00
2018-03-16T01:47:28.158Z,3.00
2018-03-16T01:50:00.594Z,2.90
2018-03-16T01:52:32.048Z,2.90
2018-03-16T01:55:03.462Z,2.90
2018-03-16T01:57:34.707Z,2.90
2018-03-16T02:00:05.920Z,2.90
2018-03-16T02:02:37.952Z,3.10
2018-03-16T02:05:09.176Z,3.10
2018-03-16T02:07:40.389Z,3.10
2018-03-16T02:10:11.794Z,3.00
2018-03-16T02:12:43.064Z,3.10
2018-03-16T02:15:14.307Z,2.90
2018-03-16T02:17:46.253Z,2.90
2018-03-16T02:20:17.486Z,2.90
2018-03-16T02:22:48.724Z,2.90
2018-03-16T02:25:19.908Z,2.90
2018-03-16T02:27:51.217Z,2.90
2018-03-16T02:30:22.532Z,3.10
2018-03-16T02:32:53.824Z,3.00
2018-03-16T02:35:25.152Z,2.90
2018-03-16T02:37:56.388Z,3.00
2018-03-16T02:40:27.634Z,3.00
2018-03-16T02:42:58.845Z,2.90
2018-03-16T02:45:30.298Z,2.70
2018-03-16T02:48:01.533Z,2.80
2018-03-16T02:50:32.713Z,2.80
2018-03-16T02:53:04.243Z,2.80
2018-03-16T02:55:35.508Z,2.70
2018-03-16T02:58:07.492Z,2.80
2018-03-16T03:00:38.665Z,2.80
2018-03-16T03:03:10.841Z,2.70
2018-03-16T03:05:42.011Z,2.60
2018-03-16T03:08:13.303Z,2.70
2018-03-16T03:10:45.220Z,2.70
2018-03-16T03:13:16.435Z,2.70
2018-03-16T03:15:47.871Z,2.70
2018-03-16T03:18:19.100Z,2.60
2018-03-16T03:20:50.305Z,2.70
2018-03-16T03:23:21.796Z,2.90
2018-03-16T03:25:53.803Z,2.80
2018-03-16T03:28:25.174Z,2.70
2018-03-16T03:30:57.178Z,2.70
2018-03-16T03:33:28.760Z,2.60
2018-03-16T03:36:00.060Z,2.60
2018-03-16T03:38:31.374Z,2.60
2018-03-16T03:41:02.587Z,2.70
2018-03-16T03:43:34.517Z,2.60
2018-03-16T03:46:06.818Z,2.60
2018-03-16T03:48:37.990Z,2.50
2018-03-16T03:51:09.216Z,2.60
2018-03-16T03:53:40.393Z,2.70
2018-03-16T03:56:11.712Z,2.60
2018-03-16T03:58:42.904Z,2.50
2018-03-16T04:01:14.865Z,2.40
2018-03-16T04:03:46.824Z,2.50
2018-03-16T04:06:17.999Z,2.50
2018-03-16T04:08:49.455Z,2.50
2018-03-16T04:11:20.687Z,2.50
2018-03-16T04:13:51.863Z,2.50
2018-03-16T04:16:23.099Z,2.50
2018-03-16T04:18:54.281Z,2.40
2018-03-16T04:21:25.498Z,2.40
2018-03-16T04:23:56.674Z,2.50
2018-03-16T04:26:27.913Z,2.50
2018-03-16T04:28:59.078Z,2.50
2018-03-16T04:31:30.287Z,2.60
2018-03-16T04:34:01.455Z,2.50
2018-03-16T04:36:33.461Z,2.30
2018-03-16T04:39:04.662Z,2.30
2018-03-16T04:41:36.585Z,2.30
2018-03-16T04:44:08.577Z,2.20
2018-03-16T04:46:40.494Z,2.30
2018-03-16T04:49:11.727Z,2.30
2018-03-16T04:51:42.953Z,2.30
2018-03-16T04:54:14.196Z,2.30
2018-03-16T04:56:45.455Z,2.20
2018-03-16T04:59:16.704Z,2.30
2018-03-16T05:01:47.917Z,2.20
2018-03-16T05:04:19.127Z,2.20
2018-03-16T05:06:50.340Z,2.20
2018-03-16T05:09:21.541Z,2.10
2018-03-16T05:11:53.487Z,2.10
2018-03-16T05:14:24.699Z,2.00
2018-03-16T05:16:55.933Z,2.10
2018-03-16T05:19:27.162Z,2.10
2018-03-16T05:21:58.352Z,2.20
2018-03-16T05:24:29.536Z,2.20
2018-03-16T05:27:00.725Z,2.10
2018-03-16T05:29:31.901Z,2.10
2018-03-16T05:32:04.120Z,2.00
2018-03-16T05:34:35.438Z,2.00
2018-03-16T05:37:06.716Z,2.00
2018-03-16T05:39:37.952Z,2.10
2018-03-16T05:42:09.220Z,2.10
2018-03-16T05:44:40.422Z,2.10
2018-03-16T05:47:11.658Z,2.00
2018-03-16T05:49:42.951Z,2.00
2018-03-16T05:52:14.265Z,2.10
2018-03-16T05:54:45.517Z,2.20
2018-03-16T05:57:16.771Z,2.00
2018-03-16T05:59:47.972Z,2.00
2018-03-16T06:02:19.237Z,2.00
2018-03-16T06:04:50.425Z,1.90
2018-03-16T06:07:21.662Z,2.00
2018-03-16T06:09:52.873Z,2.00
2018-03-16T06:12:24.086Z,2.00
2018-03-16T06:14:56.038Z,2.00
2018-03-16T06:17:28.040Z,2.00
2018-03-16T06:19:59.261Z,2.00
2018-03-16T06:22:31.228Z,2.10
2018-03-16T06:25:02.453Z,2.00
2018-03-16T06:27:34.445Z,2.10
2018-03-16T06:30:05.682Z,2.10
2018-03-16T06:32:36.903Z,1.90
2018-03-16T06:35:08.852Z,1.90
2018-03-16T06:37:40.247Z,1.90
2018-03-16T06:40:11.695Z,1.80
2018-03-16T06:42:42.933Z,1.90
2018-03-16T06:45:14.232Z,1.80
2018-03-16T06:47:46.350Z,1.90
2018-03-16T06:50:17.608Z,1.90
2018-03-16T06:52:48.860Z,1.90
2018-03-16T06:55:20.132Z,1.90
2018-03-16T06:57:51.485Z,2.00
2018-03-16T07:00:23.555Z,2.00
2018-03-16T07:02:54.757Z,1.90
2018-03-16T07:05:26.008Z,2.10
2018-03-16T07:07:57.169Z,2.00
2018-03-16T07:10:28.406Z,2.00
2018-03-16T07:12:59.814Z,2.10
2018-03-16T07:15:34.090Z,2.20
2018-03-16T07:18:05.367Z,2.20
2018-03-16T07:20:36.944Z,2.20
2018-03-16T07:23:08.194Z,2.00
2018-03-16T07:25:39.439Z,2.00
2018-03-16T07:28:10.660Z,2.00
2018-03-16T07:30:41.877Z,1.90
2018-03-16T07:33:13.794Z,2.10
2018-03-16T07:35:45.033Z,2.10
2018-03-16T07:38:16.360Z,2.20
2018-03-16T07:40:47.968Z,2.10
2018-03-16T07:43:19.101Z,2.10
2018-03-16T07:45:56.570Z,2.00
2018-03-16T07:48:27.993Z,2.00
2018-03-16T07:50:59.236Z,2.00
2018-03-16T07:53:30.371Z,2.00
2018-03-16T07:56:01.604Z,2.00
2018-03-16T07:58:32.856Z,2.00
2018-03-16T08:01:04.081Z,2.00
2018-03-16T08:03:36.045Z,2.00
2018-03-16T08:06:07.998Z,2.00
2018-03-16T08:08:39.220Z,2.00
2018-03-16T08:11:10.554Z,2.00
2018-03-16T08:13:43.220Z,1.80
2018-03-16T08:16:14.611Z,1.80
2018-03-16T08:18:45.866Z,1.90
2018-03-16T08:21:17.084Z,2.00
2018-03-16T08:23:49.042Z,2.10
2018-03-16T08:26:21.030Z,1.90
2018-03-16T08:28:52.281Z,1.90
2018-03-16T08:31:24.273Z,2.00
2018-03-16T08:33:55.497Z,2.00
2018-03-16T08:36:26.664Z,1.90
2018-03-16T08:38:57.958Z,2.00
2018-03-16T08:41:29.253Z,2.10
2018-03-16T08:44:00.471Z,2.20
2018-03-16T08:46:31.702Z,2.20
2018-03-16T08:49:02.958Z,2.10
2018-03-16T08:51:34.862Z,2.20
2018-03-16T08:54:06.344Z,2.10
2018-03-16T08:56:37.520Z,2.20
2018-03-16T08:59:08.829Z,2.20
2018-03-16T09:01:40.056Z,2.20
2018-03-16T09:04:11.605Z,2.20
2018-03-16T09:06:42.831Z,2.30
2018-03-16T09:09:14.055Z,2.30
2018-03-16T09:11:45.273Z,2.20
2018-03-16T09:14:16.808Z,2.10
2018-03-16T09:16:48.003Z,2.10
2018-03-16T09:19:19.289Z,2.20
2018-03-16T09:21:51.314Z,2.10
2018-03-16T09:24:22.714Z,2.10
2018-03-16T09:26:54.007Z,2.10
2018-03-16T09:29:25.482Z,2.10
2018-03-16T09:31:57.542Z,2.00
2018-03-16T09:34:28.759Z,1.90
2018-03-16T09:37:00.843Z,2.00
2018-03-16T09:39:32.287Z,1.90
2018-03-16T09:42:03.688Z,2.10
2018-03-16T09:44:35.697Z,2.00
2018-03-16T09:47:07.305Z,2.00
2018-03-16T09:49:39.604Z,1.90
2018-03-16T09:52:10.856Z,1.90
2018-03-16T09:55:04.950Z,2.00
2018-03-16T09:57:36.234Z,2.00
2018-03-16T10:00:08.404Z,2.00
2018-03-16T10:02:40.354Z,1.90
2018-03-16T10:05:11.618Z,1.90
2018-03-16T10:07:43.830Z,1.80
2018-03-16T10:10:15.081Z,1.80
2018-03-16T10:12:46.733Z,1.80
2018-03-16T10:15:17.967Z,1.70
2018-03-16T10:17:49.233Z,1.80
2018-03-16T10:20:21.390Z,1.80
2018-03-16T10:22:52.654Z,1.70
2018-03-16T10:25:23.897Z,1.70
2018-03-16T10:27:56.365Z,1.80
2018-03-16T10:30:27.746Z,1.80
2018-03-16T10:32:59.725Z,1.80
2018-03-16T10:35:31.016Z,1.80
2018-03-16T10:38:02.265Z,1.60
2018-03-16T10:40:33.495Z,1.60
2018-03-16T10:43:04.710Z,1.50
2018-03-16T10:45:36.038Z,1.60
2018-03-16T10:48:08.024Z,1.80
2018-03-16T10:50:39.310Z,1.70
2018-03-16T10:53:11.091Z,1.90
2018-03-16T10:55:44.993Z,1.80
2018-03-16T10:58:16.228Z,1.70
2018-03-16T11:00:53.699Z,1.60
2018-03-16T11:03:24.981Z,1.60
2018-03-16T11:05:57.008Z,1.60
2018-03-16T11:08:32.479Z,1.60
2018-03-16T11:11:04.580Z,1.60
2018-03-16T11:13:35.918Z,1.60
2018-03-16T11:16:07.232Z,1.50
2018-03-16T11:18:38.597Z,1.40
2018-03-16T11:21:09.891Z,1.30
2018-03-16T11:23:41.135Z,1.30
2018-03-16T11:26:12.349Z,1.20
2018-03-16T11:28:43.673Z,1.10
2018-03-16T11:31:15.667Z,1.20
2018-03-16T11:33:46.906Z,1.20
2018-03-16T11:36:18.210Z,1.10
2018-03-16T11:38:49.859Z,1.10
2018-03-16T11:41:21.270Z,1.20
2018-03-16T11:43:53.376Z,1.30
2018-03-16T11:46:25.322Z,1.40
2018-03-16T11:48:56.512Z,1.40
2018-03-16T11:51:27.815Z,1.40
2018-03-16T11:53:59.169Z,1.30
2018-03-16T11:56:30.461Z,1.30
2018-03-16T11:59:01.825Z,1.20
2018-03-16T12:01:33.220Z,1.30
2018-03-16T12:04:05.209Z,1.40
2018-03-16T12:06:36.465Z,1.40
2018-03-16T12:09:07.851Z,1.40
2018-03-16T12:11:39.965Z,1.40
2018-03-16T12:14:11.444Z,1.50
2018-03-16T12:16:42.952Z,1.50
2018-03-16T12:19:14.989Z,1.30
2018-03-16T12:21:46.637Z,1.30
2018-03-16T12:24:17.924Z,1.30
2018-03-16T12:26:49.251Z,1.30
2018-03-16T12:29:20.753Z,1.20
2018-03-16T12:31:52.057Z,1.20
2018-03-16T12:34:23.999Z,1.10
2018-03-16T12:36:56.014Z,1.10
2018-03-16T12:39:27.281Z,1.00
2018-03-16T12:41:59.648Z,1.10
2018-03-16T12:44:30.828Z,1.10
2018-03-16T12:47:02.166Z,1.30
2018-03-16T12:49:34.147Z,1.20
2018-03-16T12:52:06.544Z,1.10
2018-03-16T12:54:38.320Z,1.10
2018-03-16T12:57:09.517Z,1.20
2018-03-16T12:59:40.742Z,1.30
2018-03-16T13:02:12.105Z,1.20
2018-03-16T13:04:44.131Z,1.30
2018-03-16T13:07:15.453Z,1.20
2018-03-16T13:09:47.053Z,1.30
2018-03-16T13:12:18.470Z,1.40
2018-03-16T13:14:49.720Z,1.40
2018-03-16T13:17:20.964Z,1.40
2018-03-16T13:19:52.208Z,1.20
2018-03-16T13:22:23.534Z,1.30
2018-03-16T13:24:54.940Z,1.20
2018-03-16T13:27:26.121Z,1.00
2018-03-16T13:29:57.377Z,1.00
2018-03-16T13:32:28.643Z,1.10
2018-03-16T13:34:59.902Z,1.00
2018-03-16T13:37:31.884Z,1.10
2018-03-16T13:40:03.861Z,1.10
2018-03-16T13:42:35.183Z,1.00
2018-03-16T13:45:06.454Z,1.10
2018-03-16T13:47:38.761Z,1.10
2018-03-16T13:50:09.968Z,1.10
2018-03-16T13:52:42.160Z,1.20
2018-03-16T13:55:13.351Z,1.20
2018-03-16T13:57:45.377Z,1.00
2018-03-16T14:00:16.650Z,1.00
2018-03-16T14:02:48.095Z,1.00
2018-03-16T14:05:19.315Z,1.00
2018-03-16T14:07:51.597Z,1.10
2018-03-16T14:10:23.213Z,1.20
2018-03-16T14:12:54.791Z,1.10
2018-03-16T14:15:26.095Z,1.20
2018-03-16T14:17:57.410Z,1.30
2018-03-16T14:20:29.450Z,1.30
2018-03-16T14:23:01.528Z,1.30
2018-03-16T14:25:32.756Z,1.30
2018-03-16T14:28:04.078Z,1.20
2018-03-16T14:30:35.311Z,1.20
2018-03-16T14:33:06.688Z,1.00
2018-03-16T14:35:37.954Z,1.00
2018-03-16T14:38:09.159Z,1.10
2018-03-16T14:40:41.051Z,1.00
2018-03-16T14:43:13.101Z,1.10
2018-03-16T14:45:44.395Z,1.10
2018-03-16T14:48:16.328Z,1.20
2018-03-16T14:50:47.616Z,1.10
2018-03-16T14:53:18.821Z,1.20
2018-03-16T14:55:50.042Z,1.10
2018-03-16T14:58:21.248Z,1.20
2018-03-16T15:00:52.456Z,1.20
2018-03-16T15:03:23.755Z,1.20
2018-03-16T15:05:55.043Z,1.20
2018-03-16T15:08:27.004Z,1.20
2018-03-16T15:10:59.043Z,1.30
2018-03-16T15:13:30.355Z,1.30
2018-03-16T15:16:01.608Z,1.30
2018-03-16T15:18:32.814Z,1.30
2018-03-16T15:21:04.060Z,1.30
2018-03-16T15:23:35.369Z,1.40
2018-03-16T15:26:06.672Z,1.40
2018-03-16T15:28:37.947Z,1.40
2018-03-16T15:31:09.636Z,1.50
2018-03-16T15:33:40.847Z,1.50
2018-03-16T15:36:12.078Z,1.50
2018-03-16T15:38:43.510Z,1.50
2018-03-16T15:41:14.749Z,1.40
2018-03-16T15:43:47.015Z,1.40
2018-03-16T15:46:18.267Z,1.40
2018-03-16T15:48:49.526Z,1.40
2018-03-16T15:51:20.748Z,1.50
2018-03-16T15:53:52.937Z,1.50
2018-03-16T15:56:24.129Z,1.50
2018-03-16T15:58:55.411Z,1.50
2018-03-16T16:01:27.403Z,1.40
2018-03-16T16:03:58.748Z,1.40
2018-03-16T16:06:29.998Z,1.50
2018-03-16T16:09:01.187Z,1.40
2018-03-16T16:11:32.417Z,1.50
2018-03-16T16:14:03.635Z,1.50
2018-03-16T16:16:35.628Z,1.50
2018-03-16T16:19:07.618Z,1.40
2018-03-16T16:21:38.836Z,1.40
2018-03-16T16:24:10.877Z,1.40
2018-03-16T16:26:42.246Z,1.30
2018-03-16T16:29:13.436Z,1.40
2018-03-16T16:31:44.756Z,1.40
2018-03-16T16:34:16.000Z,1.20
2018-03-16T16:36:47.421Z,1.20
2018-03-16T16:39:18.724Z,1.30
2018-03-16T16:41:50.783Z,1.20
2018-03-16T16:44:22.368Z,1.20
2018-03-16T16:46:53.579Z,1.10
2018-03-16T16:49:25.232Z,1.10
2018-03-16T16:51:56.542Z,1.10
2018-03-16T16:54:27.831Z,1.00
2018-03-16T16:56:59.049Z,1.10
2018-03-16T16:59:31.150Z,1.10
2018-03-16T17:02:02.400Z,1.10
2018-03-16T17:04:33.720Z,1.10
2018-03-16T17:07:05.380Z,1.10
2018-03-16T17:09:36.635Z,1.30
2018-03-16T17:12:07.891Z,1.30
2018-03-16T17:14:39.428Z,1.40
2018-03-16T17:17:10.613Z,1.50
2018-03-16T17:19:42.983Z,1.40
2018-03-16T17:22:15.014Z,1.60
2018-03-16T17:24:46.416Z,1.60
2018-03-16T17:27:17.765Z,1.50
2018-03-16T17:29:49.046Z,1.30
2018-03-16T17:32:24.243Z,1.20
2018-03-16T17:34:51.770Z,1.30
2018-03-16T17:37:22.983Z,1.10
2018-03-16T17:39:54.313Z,1.00
2018-03-16T17:42:25.749Z,1.20
2018-03-16T17:44:57.247Z,1.30
2018-03-16T17:47:28.589Z,1.20
2018-03-16T17:49:59.972Z,1.20
2018-03-16T17:52:31.951Z,1.10
2018-03-16T17:55:04.145Z,1.10
2018-03-16T17:57:35.478Z,1.10
2018-03-16T18:00:06.819Z,1.20
2018-03-16T18:02:38.231Z,1.20
2018-03-16T18:05:09.588Z,1.20
2018-03-16T18:07:40.965Z,1.10
2018-03-16T18:10:12.353Z,1.10
2018-03-16T18:12:44.504Z,1.00
2018-03-16T18:15:16.078Z,1.00
2018-03-16T18:17:47.312Z,1.00
2018-03-16T18:20:18.531Z,1.00
2018-03-16T18:22:49.817Z,1.00
2018-03-16T18:25:21.093Z,0.90
2018-03-16T18:27:53.121Z,0.90
2018-03-16T18:30:24.543Z,0.90
2018-03-16T18:32:55.784Z,0.70
2018-03-16T18:35:27.100Z,0.70
2018-03-16T18:37:58.474Z,0.70
2018-03-16T18:40:29.727Z,0.60
2018-03-16T18:43:00.975Z,0.60
2018-03-16T18:45:32.196Z,0.60
2018-03-16T18:48:03.459Z,0.60
2018-03-16T18:50:34.701Z,0.60
2018-03-16T18:53:06.071Z,0.70
2018-03-16T18:55:37.398Z,0.60
2018-03-16T18:58:08.716Z,0.60
2018-03-16T19:00:40.803Z,0.60
2018-03-16T19:03:12.146Z,0.60
2018-03-16T19:05:43.462Z,0.60
2018-03-16T19:08:15.478Z,0.60
2018-03-16T19:10:47.688Z,0.60
2018-03-16T19:13:19.300Z,0.80
2018-03-16T19:15:50.577Z,0.70
2018-03-16T19:18:21.823Z,0.60
2018-03-16T19:20:53.108Z,0.60
2018-03-16T19:23:24.308Z,0.60
2018-03-16T19:25:55.829Z,0.60
2018-03-16T19:28:27.034Z,0.70
2018-03-16T19:30:58.309Z,0.60
2018-03-16T19:33:29.644Z,0.40
2018-03-16T19:36:01.579Z,0.40
2018-03-16T19:38:33.792Z,0.50
2018-03-16T19:41:05.329Z,0.40
2018-03-16T19:43:36.541Z,0.30
2018-03-16T19:46:08.239Z,0.50
2018-03-16T19:48:40.112Z,0.40
2018-03-16T19:51:11.436Z,0.40
2018-03-16T19:53:42.730Z,0.40
2018-03-16T19:56:14.023Z,0.40
2018-03-16T19:58:45.285Z,0.50
2018-03-16T20:01:17.628Z,0.60
2018-03-16T20:03:48.828Z,0.60
2018-03-16T20:06:20.088Z,0.50
2018-03-16T20:08:52.106Z,0.50
2018-03-16T20:11:23.339Z,0.50
2018-03-16T20:13:54.626Z,0.50
2018-03-16T20:16:25.960Z,0.40
2018-03-16T20:18:57.313Z,0.30
2018-03-16T20:21:28.592Z,0.20
2018-03-16T20:23:59.852Z,0.30
2018-03-16T20:26:31.270Z,0.30
2018-03-16T20:29:05.177Z,0.30
2018-03-16T20:31:36.584Z,0.30
2018-03-16T20:34:08.069Z,0.20
2018-03-16T20:36:39.300Z,0.20
2018-03-16T20:39:11.108Z,0.10
2018-03-16T20:41:42.449Z,0.00
2018-03-16T20:44:13.677Z,0.10
2018-03-16T20:46:45.714Z,0.20
2018-03-16T20:49:17.081Z,0.10
2018-03-16T20:51:49.279Z,0.00
2018-03-16T20:54:20.629Z,0.00
2018-03-16T20:56:51.836Z,-0.10
2018-03-16T20:59:23.813Z,0.00
2018-03-16T21:01:55.081Z,-0.10
2018-03-16T21:04:26.305Z,-0.10
2018-03-16T21:06:57.597Z,-0.10
2018-03-16T21:09:28.832Z,-0.10
2018-03-16T21:12:00.112Z,0.00
2018-03-16T21:14:31.319Z,-0.10
2018-03-16T21:17:02.621Z,-0.20
2018-03-16T21:19:33.860Z,-0.10
2018-03-16T21:22:05.844Z,-0.30
2018-03-16T21:24:37.113Z,-0.30
2018-03-16T21:27:08.774Z,-0.30
2018-03-16T21:29:40.829Z,-0.40
2018-03-16T21:32:12.207Z,-0.40
2018-03-16T21:34:43.488Z,-0.30
2018-03-16T21:37:14.774Z,-0.30
2018-03-16T21:39:45.943Z,-0.40
2018-03-16T21:42:17.315Z,-0.30
2018-03-16T21:44:48.569Z,-0.40
2018-03-16T21:47:20.580Z,-0.50
2018-03-16T21:49:51.832Z,-0.50
2018-03-16T21:52:23.356Z,-0.50
2018-03-16T21:54:54.590Z,-0.50
2018-03-16T21:57:25.817Z,-0.50
2018-03-16T21:59:57.017Z,-0.50
2018-03-16T22:02:28.329Z,-0.50
2018-03-16T22:04:59.576Z,-0.60
2018-03-16T22:07:30.903Z,-0.50
2018-03-16T22:10:02.363Z,-0.40
2018-03-16T22:12:33.789Z,-0.40
2018-03-16T22:15:05.735Z,-0.50
2018-03-16T22:17:37.930Z,-0.70
2018-03-16T22:20:09.257Z,-0.70
2018-03-16T22:22:41.085Z,-0.60
2018-03-16T22:25:13.880Z,-0.60
2018-03-16T22:27:52.127Z,-0.60
2018-03-16T22:30:23.484Z,-0.60
2018-03-16T22:32:54.801Z,-0.70
2018-03-16T22:35:26.043Z,-0.70
2018-03-16T22:37:58.595Z,-0.70
2018-03-16T22:40:31.095Z,-0.70
2018-03-16T22:43:02.539Z,-0.80
2018-03-16T22:45:33.784Z,-0.80
2018-03-16T22:48:05.340Z,-0.80
2018-03-16T22:50:36.718Z,-0.70
2018-03-16T22:53:08.137Z,-0.90
2018-03-16T22:55:39.429Z,-0.90
2018-03-16T22:58:10.826Z,-0.80
2018-03-16T23:00:42.072Z,-0.80
2018-03-16T23:03:14.040Z,-0.70
2018-03-16T23:05:45.560Z,-0.70
2018-03-16T23:08:17.572Z,-0.80
2018-03-16T23:10:48.976Z,-0.80
2018-03-16T23:13:20.950Z,-0.90
2018-03-16T23:15:53.146Z,-1.00
2018-03-16T23:18:24.537Z,-0.90
2018-03-16T23:20:55.970Z,-0.80
2018-03-16T23:23:28.036Z,-0.90
2018-03-16T23:26:00.023Z,-0.80
2018-03-16T23:28:32.203Z,-0.80
2018-03-16T23:31:04.160Z,-0.80
2018-03-16T23:33:36.116Z,-0.80
2018-03-16T23:36:07.508Z,-0.80
2018-03-16T23:38:38.853Z,-0.80
2018-03-16T23:41:10.234Z,-0.70
2018-03-16T23:43:41.926Z,-0.80
2018-03-16T23:46:14.190Z,-1.00
2018-03-16T23:48:45.572Z,-1.00
2018-03-16T23:51:16.943Z,-1.00
2018-03-16T23:53:48.292Z,-1.00
2018-03-16T23:56:20.013Z,-1.00
2018-03-16T23:58:51.247Z,-1.10
